sensor_id;sensor_type;location;lat;lon;timestamp;temperature;humidity
16511;DHT22;8368;48.772;8.754;2023-04-29T00:01:21;11.80;99.90
16511;DHT22;8368;48.772;8.754;2023-04-29T00:03:47;11.70;99.90
16511;DHT22;8368;48.772;8.754;2023-04-29T00:06:13;11.80;99.90
16511;DHT22;8368;48.772;8.754;2023-04-29T00:08:39;11.80;99.90
16511;DHT22;8368;48.772;8.754;2023-04-29T00:11:05;11.70;99.90
16511;DHT22;8368;48.772;8.754;2023-04-29T00:13:30;11.60;99.90
16511;DHT22;8368;48.772;8.754;2023-04-29T00:15:56;11.60;99.90
16511;DHT22;8368;48.772;8.754;2023-04-29T00:18:21;11.70;99.90
16511;DHT22;8368;48.772;8.754;2023-04-29T00:20:47;11.70;99.90
16511;DHT22;8368;48.772;8.754;2023-04-29T00:23:12;11.70;99.90
16511;DHT22;8368;48.772;8.754;2023-04-29T00:25:38;11.70;99.90
16511;DHT22;8368;48.772;8.754;2023-04-29T00:28:07;11.70;99.90
16511;DHT22;8368;48.772;8.754;2023-04-29T00:30:32;11.70;99.90
16511;DHT22;8368;48.772;8.754;2023-04-29T00:32:58;11.60;99.90
16511;DHT22;8368;48.772;8.754;2023-04-29T00:35:24;11.50;99.90
16511;DHT22;8368;48.772;8.754;2023-04-29T00:37:50;11.60;99.90
16511;DHT22;8368;48.772;8.754;2023-04-29T00:40:15;11.60;99.90
16511;DHT22;8368;48.772;8.754;2023-04-29T00:42:41;11.60;99.90
16511;DHT22;8368;48.772;8.754;2023-04-29T00:45:09;11.50;99.90
16511;DHT22;8368;48.772;8.754;2023-04-29T00:47:38;11.40;99.90
16511;DHT22;8368;48.772;8.754;2023-04-29T00:50:07;11.40;99.90
16511;DHT22;8368;48.772;8.754;2023-04-29T00:52:33;11.30;99.90
16511;DHT22;8368;48.772;8.754;2023-04-29T00:54:59;11.30;99.90
16511;DHT22;8368;48.772;8.754;2023-04-29T00:57:25;11.40;99.90
16511;DHT22;8368;48.772;8.754;2023-04-29T00:59:58;11.30;99.90
16511;DHT22;8368;48.772;8.754;2023-04-29T01:02:24;11.30;99.90
16511;DHT22;8368;48.772;8.754;2023-04-29T01:04:51;11.40;99.90
16511;DHT22;8368;48.772;8.754;2023-04-29T01:07:29;11.50;99.90
16511;DHT22;8368;48.772;8.754;2023-04-29T01:10:13;11.50;99.90
16511;DHT22;8368;48.772;8.754;2023-04-29T01:12:45;11.50;99.90
16511;DHT22;8368;48.772;8.754;2023-04-29T01:15:34;11.40;99.90
16511;DHT22;8368;48.772;8.754;2023-04-29T01:18:14;11.30;99.90
16511;DHT22;8368;48.772;8.754;2023-04-29T01:20:41;11.20;99.90
16511;DHT22;8368;48.772;8.754;2023-04-29T01:23:09;11.10;99.90
16511;DHT22;8368;48.772;8.754;2023-04-29T01:25:35;11.00;99.90
16511;DHT22;8368;48.772;8.754;2023-04-29T01:28:21;10.90;99.90
16511;DHT22;8368;48.772;8.754;2023-04-29T01:33:58;10.90;99.90
16511;DHT22;8368;48.772;8.754;2023-04-29T01:36:46;10.80;99.90
16511;DHT22;8368;48.772;8.754;2023-04-29T01:42:03;10.70;99.90
16511;DHT22;8368;48.772;8.754;2023-04-29T01:44:32;10.70;99.90
16511;DHT22;8368;48.772;8.754;2023-04-29T01:46:58;10.60;99.90
16511;DHT22;8368;48.772;8.754;2023-04-29T01:49:26;11.00;99.90
16511;DHT22;8368;48.772;8.754;2023-04-29T01:51:52;11.20;99.90
16511;DHT22;8368;48.772;8.754;2023-04-29T01:54:17;11.30;99.90
16511;DHT22;8368;48.772;8.754;2023-04-29T01:56:43;11.20;99.90
16511;DHT22;8368;48.772;8.754;2023-04-29T01:59:09;11.40;99.90
16511;DHT22;8368;48.772;8.754;2023-04-29T02:01:35;11.50;99.90
16511;DHT22;8368;48.772;8.754;2023-04-29T02:04:00;11.50;99.90
16511;DHT22;8368;48.772;8.754;2023-04-29T02:06:26;11.60;99.90
16511;DHT22;8368;48.772;8.754;2023-04-29T02:08:52;11.50;99.90
16511;DHT22;8368;48.772;8.754;2023-04-29T02:11:17;11.40;99.90
16511;DHT22;8368;48.772;8.754;2023-04-29T02:13:43;11.50;99.90
16511;DHT22;8368;48.772;8.754;2023-04-29T02:16:13;11.40;99.90
16511;DHT22;8368;48.772;8.754;2023-04-29T02:18:39;11.40;99.90
16511;DHT22;8368;48.772;8.754;2023-04-29T02:21:05;11.30;99.90
16511;DHT22;8368;48.772;8.754;2023-04-29T02:23:31;11.20;99.90
16511;DHT22;8368;48.772;8.754;2023-04-29T02:25:57;11.00;99.90
16511;DHT22;8368;48.772;8.754;2023-04-29T02:28:22;10.90;99.90
16511;DHT22;8368;48.772;8.754;2023-04-29T02:30:48;10.80;99.90
16511;DHT22;8368;48.772;8.754;2023-04-29T02:33:14;10.70;99.90
16511;DHT22;8368;48.772;8.754;2023-04-29T02:35:40;10.60;99.90
16511;DHT22;8368;48.772;8.754;2023-04-29T02:38:06;10.50;99.90
16511;DHT22;8368;48.772;8.754;2023-04-29T02:40:32;10.40;99.90
16511;DHT22;8368;48.772;8.754;2023-04-29T02:42:57;10.30;99.90
16511;DHT22;8368;48.772;8.754;2023-04-29T02:45:23;10.20;99.90
16511;DHT22;8368;48.772;8.754;2023-04-29T02:47:48;10.30;99.90
16511;DHT22;8368;48.772;8.754;2023-04-29T02:50:14;10.30;99.90
16511;DHT22;8368;48.772;8.754;2023-04-29T02:52:39;10.20;99.90
16511;DHT22;8368;48.772;8.754;2023-04-29T02:55:06;10.20;99.90
16511;DHT22;8368;48.772;8.754;2023-04-29T02:57:32;10.20;99.90
16511;DHT22;8368;48.772;8.754;2023-04-29T02:59:58;10.20;99.90
16511;DHT22;8368;48.772;8.754;2023-04-29T03:02:24;10.10;99.90
16511;DHT22;8368;48.772;8.754;2023-04-29T03:04:49;10.10;99.90
16511;DHT22;8368;48.772;8.754;2023-04-29T03:07:15;10.00;99.90
16511;DHT22;8368;48.772;8.754;2023-04-29T03:09:41;9.90;99.90
16511;DHT22;8368;48.772;8.754;2023-04-29T03:12:07;9.90;99.90
16511;DHT22;8368;48.772;8.754;2023-04-29T03:14:32;9.80;99.90
16511;DHT22;8368;48.772;8.754;2023-04-29T03:16:58;9.80;99.90
16511;DHT22;8368;48.772;8.754;2023-04-29T03:19:23;9.80;99.90
16511;DHT22;8368;48.772;8.754;2023-04-29T03:21:49;9.70;99.90
16511;DHT22;8368;48.772;8.754;2023-04-29T03:24:15;9.70;99.90
16511;DHT22;8368;48.772;8.754;2023-04-29T03:26:40;9.70;99.90
16511;DHT22;8368;48.772;8.754;2023-04-29T03:29:07;9.70;99.90
16511;DHT22;8368;48.772;8.754;2023-04-29T03:31:33;9.80;99.90
16511;DHT22;8368;48.772;8.754;2023-04-29T03:33:58;9.80;99.90
16511;DHT22;8368;48.772;8.754;2023-04-29T03:36:24;9.80;99.90
16511;DHT22;8368;48.772;8.754;2023-04-29T03:38:49;9.80;99.90
16511;DHT22;8368;48.772;8.754;2023-04-29T03:41:15;9.80;99.90
16511;DHT22;8368;48.772;8.754;2023-04-29T03:43:41;9.70;99.90
16511;DHT22;8368;48.772;8.754;2023-04-29T03:46:08;9.70;99.90
16511;DHT22;8368;48.772;8.754;2023-04-29T03:48:34;9.70;99.90
16511;DHT22;8368;48.772;8.754;2023-04-29T03:51:00;9.60;99.90
16511;DHT22;8368;48.772;8.754;2023-04-29T03:53:25;9.60;99.90
16511;DHT22;8368;48.772;8.754;2023-04-29T03:55:51;9.60;99.90
16511;DHT22;8368;48.772;8.754;2023-04-29T03:58:16;9.60;99.90
16511;DHT22;8368;48.772;8.754;2023-04-29T04:00:42;9.60;99.90
16511;DHT22;8368;48.772;8.754;2023-04-29T04:03:08;9.60;99.90
16511;DHT22;8368;48.772;8.754;2023-04-29T04:05:33;9.60;99.90
16511;DHT22;8368;48.772;8.754;2023-04-29T04:07:59;9.60;99.90
16511;DHT22;8368;48.772;8.754;2023-04-29T04:10:25;9.60;99.90
16511;DHT22;8368;48.772;8.754;2023-04-29T04:12:50;9.60;99.90
16511;DHT22;8368;48.772;8.754;2023-04-29T04:15:16;9.60;99.90
16511;DHT22;8368;48.772;8.754;2023-04-29T04:17:42;9.60;99.90
16511;DHT22;8368;48.772;8.754;2023-04-29T04:20:08;9.60;99.90
16511;DHT22;8368;48.772;8.754;2023-04-29T04:22:34;9.60;99.90
16511;DHT22;8368;48.772;8.754;2023-04-29T04:24:59;9.70;99.90
16511;DHT22;8368;48.772;8.754;2023-04-29T04:27:25;9.80;99.90
16511;DHT22;8368;48.772;8.754;2023-04-29T04:29:53;9.80;99.90
16511;DHT22;8368;48.772;8.754;2023-04-29T04:32:22;9.80;99.90
16511;DHT22;8368;48.772;8.754;2023-04-29T04:34:48;9.90;99.90
16511;DHT22;8368;48.772;8.754;2023-04-29T04:37:14;10.00;99.90
16511;DHT22;8368;48.772;8.754;2023-04-29T04:39:40;10.10;99.90
16511;DHT22;8368;48.772;8.754;2023-04-29T04:42:06;10.20;99.90
16511;DHT22;8368;48.772;8.754;2023-04-29T04:44:31;10.10;99.90
16511;DHT22;8368;48.772;8.754;2023-04-29T04:46:58;10.10;99.90
16511;DHT22;8368;48.772;8.754;2023-04-29T04:49:25;10.00;99.90
16511;DHT22;8368;48.772;8.754;2023-04-29T04:51:52;10.00;99.90
16511;DHT22;8368;48.772;8.754;2023-04-29T04:54:17;10.10;99.90
16511;DHT22;8368;48.772;8.754;2023-04-29T04:56:43;10.10;99.90
16511;DHT22;8368;48.772;8.754;2023-04-29T04:59:08;10.20;99.90
16511;DHT22;8368;48.772;8.754;2023-04-29T05:01:34;10.30;99.90
16511;DHT22;8368;48.772;8.754;2023-04-29T05:04:00;10.30;99.90
16511;DHT22;8368;48.772;8.754;2023-04-29T05:06:26;10.40;99.90
16511;DHT22;8368;48.772;8.754;2023-04-29T05:08:52;10.50;99.90
16511;DHT22;8368;48.772;8.754;2023-04-29T05:11:19;10.50;99.90
16511;DHT22;8368;48.772;8.754;2023-04-29T05:13:45;10.50;99.90
16511;DHT22;8368;48.772;8.754;2023-04-29T05:16:11;10.50;99.90
16511;DHT22;8368;48.772;8.754;2023-04-29T05:18:37;10.50;99.90
16511;DHT22;8368;48.772;8.754;2023-04-29T05:21:02;10.60;99.90
16511;DHT22;8368;48.772;8.754;2023-04-29T05:23:28;10.60;99.90
16511;DHT22;8368;48.772;8.754;2023-04-29T05:25:54;10.60;99.90
16511;DHT22;8368;48.772;8.754;2023-04-29T05:28:19;10.60;99.90
16511;DHT22;8368;48.772;8.754;2023-04-29T05:30:45;10.60;99.90
16511;DHT22;8368;48.772;8.754;2023-04-29T05:33:11;10.60;99.90
16511;DHT22;8368;48.772;8.754;2023-04-29T05:35:37;10.60;99.90
16511;DHT22;8368;48.772;8.754;2023-04-29T05:38:03;10.60;99.90
16511;DHT22;8368;48.772;8.754;2023-04-29T05:40:28;10.60;99.90
16511;DHT22;8368;48.772;8.754;2023-04-29T05:42:54;10.70;99.90
16511;DHT22;8368;48.772;8.754;2023-04-29T05:45:19;10.70;99.90
16511;DHT22;8368;48.772;8.754;2023-04-29T05:47:45;10.70;99.90
16511;DHT22;8368;48.772;8.754;2023-04-29T05:50:10;10.70;99.90
16511;DHT22;8368;48.772;8.754;2023-04-29T05:52:36;10.80;99.90
16511;DHT22;8368;48.772;8.754;2023-04-29T05:55:02;10.80;99.90
16511;DHT22;8368;48.772;8.754;2023-04-29T05:57:28;10.80;99.90
16511;DHT22;8368;48.772;8.754;2023-04-29T05:59:53;10.90;99.90
16511;DHT22;8368;48.772;8.754;2023-04-29T06:02:23;10.80;99.90
16511;DHT22;8368;48.772;8.754;2023-04-29T06:04:49;10.80;99.90
16511;DHT22;8368;48.772;8.754;2023-04-29T06:07:14;10.90;99.90
16511;DHT22;8368;48.772;8.754;2023-04-29T06:09:41;11.00;99.90
16511;DHT22;8368;48.772;8.754;2023-04-29T06:12:07;11.00;99.90
16511;DHT22;8368;48.772;8.754;2023-04-29T06:14:32;11.10;99.90
16511;DHT22;8368;48.772;8.754;2023-04-29T06:16:58;11.30;99.90
16511;DHT22;8368;48.772;8.754;2023-04-29T06:19:23;11.30;99.90
16511;DHT22;8368;48.772;8.754;2023-04-29T06:21:49;11.40;99.90
16511;DHT22;8368;48.772;8.754;2023-04-29T06:24:15;11.40;99.90
16511;DHT22;8368;48.772;8.754;2023-04-29T06:26:41;11.40;99.90
16511;DHT22;8368;48.772;8.754;2023-04-29T06:29:06;11.30;99.90
16511;DHT22;8368;48.772;8.754;2023-04-29T06:31:32;11.30;99.90
16511;DHT22;8368;48.772;8.754;2023-04-29T06:33:57;11.30;99.90
16511;DHT22;8368;48.772;8.754;2023-04-29T06:36:23;11.30;99.90
16511;DHT22;8368;48.772;8.754;2023-04-29T06:38:49;11.40;99.90
16511;DHT22;8368;48.772;8.754;2023-04-29T06:41:14;11.50;99.90
16511;DHT22;8368;48.772;8.754;2023-04-29T06:43:40;11.60;99.90
16511;DHT22;8368;48.772;8.754;2023-04-29T06:46:07;11.80;99.90
16511;DHT22;8368;48.772;8.754;2023-04-29T06:48:33;11.90;99.90
16511;DHT22;8368;48.772;8.754;2023-04-29T06:50:58;12.10;99.90
16511;DHT22;8368;48.772;8.754;2023-04-29T06:53:24;12.20;99.90
16511;DHT22;8368;48.772;8.754;2023-04-29T06:55:50;12.30;99.90
16511;DHT22;8368;48.772;8.754;2023-04-29T06:58:17;12.30;99.90
16511;DHT22;8368;48.772;8.754;2023-04-29T07:00:49;12.30;99.90
16511;DHT22;8368;48.772;8.754;2023-04-29T07:03:16;12.30;99.90
16511;DHT22;8368;48.772;8.754;2023-04-29T07:05:42;12.20;99.90
16511;DHT22;8368;48.772;8.754;2023-04-29T07:08:10;12.20;99.90
16511;DHT22;8368;48.772;8.754;2023-04-29T07:10:37;12.20;99.90
16511;DHT22;8368;48.772;8.754;2023-04-29T07:13:02;12.20;99.90
16511;DHT22;8368;48.772;8.754;2023-04-29T07:15:29;12.20;99.90
16511;DHT22;8368;48.772;8.754;2023-04-29T07:17:55;12.20;99.90
16511;DHT22;8368;48.772;8.754;2023-04-29T07:20:21;12.10;99.90
16511;DHT22;8368;48.772;8.754;2023-04-29T07:22:46;12.10;99.90
16511;DHT22;8368;48.772;8.754;2023-04-29T07:25:12;12.10;99.90
16511;DHT22;8368;48.772;8.754;2023-04-29T07:27:38;12.10;99.90
16511;DHT22;8368;48.772;8.754;2023-04-29T07:30:04;12.00;99.90
16511;DHT22;8368;48.772;8.754;2023-04-29T07:32:30;12.00;99.90
16511;DHT22;8368;48.772;8.754;2023-04-29T07:34:57;12.00;99.90
16511;DHT22;8368;48.772;8.754;2023-04-29T07:37:23;12.10;99.90
16511;DHT22;8368;48.772;8.754;2023-04-29T07:39:49;12.20;99.90
16511;DHT22;8368;48.772;8.754;2023-04-29T07:42:14;12.20;99.90
16511;DHT22;8368;48.772;8.754;2023-04-29T07:44:40;12.30;99.90
16511;DHT22;8368;48.772;8.754;2023-04-29T07:47:05;12.30;99.90
16511;DHT22;8368;48.772;8.754;2023-04-29T07:49:31;12.40;99.90
16511;DHT22;8368;48.772;8.754;2023-04-29T07:51:57;12.60;99.90
16511;DHT22;8368;48.772;8.754;2023-04-29T07:54:22;12.70;99.90
16511;DHT22;8368;48.772;8.754;2023-04-29T07:56:48;12.80;99.90
16511;DHT22;8368;48.772;8.754;2023-04-29T07:59:14;13.00;99.90
16511;DHT22;8368;48.772;8.754;2023-04-29T08:01:40;13.00;99.90
16511;DHT22;8368;48.772;8.754;2023-04-29T08:04:05;13.20;99.90
16511;DHT22;8368;48.772;8.754;2023-04-29T08:06:32;13.10;99.90
16511;DHT22;8368;48.772;8.754;2023-04-29T08:08:57;13.20;99.90
16511;DHT22;8368;48.772;8.754;2023-04-29T08:11:23;13.30;99.90
16511;DHT22;8368;48.772;8.754;2023-04-29T08:13:49;13.30;99.90
16511;DHT22;8368;48.772;8.754;2023-04-29T08:16:15;13.40;99.90
16511;DHT22;8368;48.772;8.754;2023-04-29T08:18:41;13.30;99.90
16511;DHT22;8368;48.772;8.754;2023-04-29T08:21:07;13.20;99.90
16511;DHT22;8368;48.772;8.754;2023-04-29T08:23:33;13.10;99.90
16511;DHT22;8368;48.772;8.754;2023-04-29T08:25:59;13.10;99.90
16511;DHT22;8368;48.772;8.754;2023-04-29T08:28:25;12.90;99.90
16511;DHT22;8368;48.772;8.754;2023-04-29T08:30:51;12.90;99.90
16511;DHT22;8368;48.772;8.754;2023-04-29T08:33:16;12.80;99.90
16511;DHT22;8368;48.772;8.754;2023-04-29T08:35:42;12.80;99.90
16511;DHT22;8368;48.772;8.754;2023-04-29T08:38:08;12.90;99.90
16511;DHT22;8368;48.772;8.754;2023-04-29T08:40:35;13.10;99.90
16511;DHT22;8368;48.772;8.754;2023-04-29T08:43:02;13.20;99.90
16511;DHT22;8368;48.772;8.754;2023-04-29T08:45:28;13.30;99.90
16511;DHT22;8368;48.772;8.754;2023-04-29T08:47:54;13.40;99.90
16511;DHT22;8368;48.772;8.754;2023-04-29T08:50:21;13.50;99.90
16511;DHT22;8368;48.772;8.754;2023-04-29T08:52:49;13.50;99.90
16511;DHT22;8368;48.772;8.754;2023-04-29T08:55:14;13.50;99.90
16511;DHT22;8368;48.772;8.754;2023-04-29T08:57:42;13.50;99.90
16511;DHT22;8368;48.772;8.754;2023-04-29T09:00:09;13.40;99.90
16511;DHT22;8368;48.772;8.754;2023-04-29T09:02:43;13.30;99.90
16511;DHT22;8368;48.772;8.754;2023-04-29T09:05:10;13.30;99.90
16511;DHT22;8368;48.772;8.754;2023-04-29T09:07:37;13.50;99.90
16511;DHT22;8368;48.772;8.754;2023-04-29T09:10:07;13.50;99.90
16511;DHT22;8368;48.772;8.754;2023-04-29T09:12:33;13.60;99.90
16511;DHT22;8368;48.772;8.754;2023-04-29T09:14:58;13.70;99.90
16511;DHT22;8368;48.772;8.754;2023-04-29T09:17:57;13.70;99.90
16511;DHT22;8368;48.772;8.754;2023-04-29T09:22:53;13.80;99.90
16511;DHT22;8368;48.772;8.754;2023-04-29T09:25:19;13.80;99.90
16511;DHT22;8368;48.772;8.754;2023-04-29T09:27:45;13.70;99.90
16511;DHT22;8368;48.772;8.754;2023-04-29T09:30:11;13.60;99.90
16511;DHT22;8368;48.772;8.754;2023-04-29T09:32:37;13.50;99.90
16511;DHT22;8368;48.772;8.754;2023-04-29T09:37:46;13.40;99.90
16511;DHT22;8368;48.772;8.754;2023-04-29T09:40:32;13.40;99.90
16511;DHT22;8368;48.772;8.754;2023-04-29T09:42:58;13.10;99.90
16511;DHT22;8368;48.772;8.754;2023-04-29T09:45:37;13.10;99.90
16511;DHT22;8368;48.772;8.754;2023-04-29T09:48:04;13.10;99.90
16511;DHT22;8368;48.772;8.754;2023-04-29T09:50:31;13.00;99.90
16511;DHT22;8368;48.772;8.754;2023-04-29T09:52:58;13.10;99.90
16511;DHT22;8368;48.772;8.754;2023-04-29T09:55:24;13.20;99.90
16511;DHT22;8368;48.772;8.754;2023-04-29T09:57:51;13.40;99.90
16511;DHT22;8368;48.772;8.754;2023-04-29T10:00:17;13.50;99.90
16511;DHT22;8368;48.772;8.754;2023-04-29T10:02:45;13.80;99.90
16511;DHT22;8368;48.772;8.754;2023-04-29T10:05:15;13.90;99.90
16511;DHT22;8368;48.772;8.754;2023-04-29T10:07:41;13.90;99.90
16511;DHT22;8368;48.772;8.754;2023-04-29T10:10:08;13.70;99.90
16511;DHT22;8368;48.772;8.754;2023-04-29T10:12:36;13.70;99.90
16511;DHT22;8368;48.772;8.754;2023-04-29T10:17:48;13.90;99.90
16511;DHT22;8368;48.772;8.754;2023-04-29T10:20:22;13.60;99.90
16511;DHT22;8368;48.772;8.754;2023-04-29T10:22:51;13.50;99.90
16511;DHT22;8368;48.772;8.754;2023-04-29T10:25:18;13.40;99.90
16511;DHT22;8368;48.772;8.754;2023-04-29T10:27:45;13.30;99.90
16511;DHT22;8368;48.772;8.754;2023-04-29T10:30:15;13.20;99.90
16511;DHT22;8368;48.772;8.754;2023-04-29T10:32:41;13.00;99.90
16511;DHT22;8368;48.772;8.754;2023-04-29T10:35:13;13.00;99.90
16511;DHT22;8368;48.772;8.754;2023-04-29T10:37:40;13.00;99.90
16511;DHT22;8368;48.772;8.754;2023-04-29T10:42:50;12.90;99.90
16511;DHT22;8368;48.772;8.754;2023-04-29T10:45:31;13.00;99.90
16511;DHT22;8368;48.772;8.754;2023-04-29T10:50:27;13.20;99.90
16511;DHT22;8368;48.772;8.754;2023-04-29T10:52:56;13.40;99.90
16511;DHT22;8368;48.772;8.754;2023-04-29T10:55:23;13.50;99.90
16511;DHT22;8368;48.772;8.754;2023-04-29T10:57:51;13.50;99.90
16511;DHT22;8368;48.772;8.754;2023-04-29T11:00:31;13.40;99.90
16511;DHT22;8368;48.772;8.754;2023-04-29T11:02:58;13.30;99.90
16511;DHT22;8368;48.772;8.754;2023-04-29T11:05:34;13.40;99.90
16511;DHT22;8368;48.772;8.754;2023-04-29T11:08:19;13.50;99.90
16511;DHT22;8368;48.772;8.754;2023-04-29T11:10:52;13.50;99.90
16511;DHT22;8368;48.772;8.754;2023-04-29T11:15:49;13.80;99.90
16511;DHT22;8368;48.772;8.754;2023-04-29T11:18:15;13.90;99.90
16511;DHT22;8368;48.772;8.754;2023-04-29T11:23:28;13.90;99.90
16511;DHT22;8368;48.772;8.754;2023-04-29T11:25:54;14.00;99.90
16511;DHT22;8368;48.772;8.754;2023-04-29T11:28:20;14.20;99.90
16511;DHT22;8368;48.772;8.754;2023-04-29T11:30:46;14.30;99.90
16511;DHT22;8368;48.772;8.754;2023-04-29T11:33:12;14.30;99.90
16511;DHT22;8368;48.772;8.754;2023-04-29T11:35:38;14.50;99.90
16511;DHT22;8368;48.772;8.754;2023-04-29T11:38:05;14.70;99.90
16511;DHT22;8368;48.772;8.754;2023-04-29T11:40:31;14.80;99.90
16511;DHT22;8368;48.772;8.754;2023-04-29T11:42:57;15.10;99.90
16511;DHT22;8368;48.772;8.754;2023-04-29T11:45:23;15.30;99.90
16511;DHT22;8368;48.772;8.754;2023-04-29T11:47:49;15.40;99.90
16511;DHT22;8368;48.772;8.754;2023-04-29T11:50:16;15.20;99.90
16511;DHT22;8368;48.772;8.754;2023-04-29T11:52:45;15.20;99.90
16511;DHT22;8368;48.772;8.754;2023-04-29T11:55:12;14.90;99.90
16511;DHT22;8368;48.772;8.754;2023-04-29T11:57:39;15.10;99.90
16511;DHT22;8368;48.772;8.754;2023-04-29T12:00:08;15.20;99.90
16511;DHT22;8368;48.772;8.754;2023-04-29T12:02:35;15.20;99.90
16511;DHT22;8368;48.772;8.754;2023-04-29T12:05:05;15.00;99.90
16511;DHT22;8368;48.772;8.754;2023-04-29T12:07:32;14.80;99.90
16511;DHT22;8368;48.772;8.754;2023-04-29T12:09:57;14.80;99.90
16511;DHT22;8368;48.772;8.754;2023-04-29T12:12:24;14.70;99.90
16511;DHT22;8368;48.772;8.754;2023-04-29T12:14:50;14.30;99.90
16511;DHT22;8368;48.772;8.754;2023-04-29T12:17:15;14.00;99.90
16511;DHT22;8368;48.772;8.754;2023-04-29T12:19:42;13.60;99.90
16511;DHT22;8368;48.772;8.754;2023-04-29T12:22:08;13.40;99.90
16511;DHT22;8368;48.772;8.754;2023-04-29T12:24:38;13.40;99.90
16511;DHT22;8368;48.772;8.754;2023-04-29T12:27:07;13.30;99.90
16511;DHT22;8368;48.772;8.754;2023-04-29T12:29:37;13.30;99.90
16511;DHT22;8368;48.772;8.754;2023-04-29T12:32:03;13.30;99.90
16511;DHT22;8368;48.772;8.754;2023-04-29T12:34:30;13.40;99.90
16511;DHT22;8368;48.772;8.754;2023-04-29T12:36:58;13.50;99.90
16511;DHT22;8368;48.772;8.754;2023-04-29T12:39:24;13.70;99.90
16511;DHT22;8368;48.772;8.754;2023-04-29T12:41:54;13.80;99.90
16511;DHT22;8368;48.772;8.754;2023-04-29T12:44:20;14.00;99.90
16511;DHT22;8368;48.772;8.754;2023-04-29T12:46:46;14.00;99.90
16511;DHT22;8368;48.772;8.754;2023-04-29T12:49:11;14.20;99.90
16511;DHT22;8368;48.772;8.754;2023-04-29T12:51:37;14.50;99.90
16511;DHT22;8368;48.772;8.754;2023-04-29T12:54:03;14.50;99.90
16511;DHT22;8368;48.772;8.754;2023-04-29T12:56:29;14.40;99.90
16511;DHT22;8368;48.772;8.754;2023-04-29T12:58:56;14.50;99.90
16511;DHT22;8368;48.772;8.754;2023-04-29T13:01:21;14.50;99.90
16511;DHT22;8368;48.772;8.754;2023-04-29T13:03:47;14.50;99.90
16511;DHT22;8368;48.772;8.754;2023-04-29T13:06:14;14.40;99.90
16511;DHT22;8368;48.772;8.754;2023-04-29T13:08:40;14.30;99.90
16511;DHT22;8368;48.772;8.754;2023-04-29T13:11:06;14.10;99.90
16511;DHT22;8368;48.772;8.754;2023-04-29T13:13:31;14.10;99.90
16511;DHT22;8368;48.772;8.754;2023-04-29T13:15:57;14.20;99.90
16511;DHT22;8368;48.772;8.754;2023-04-29T13:18:23;14.20;99.90
16511;DHT22;8368;48.772;8.754;2023-04-29T13:20:48;14.10;99.90
16511;DHT22;8368;48.772;8.754;2023-04-29T13:23:14;14.00;99.90
16511;DHT22;8368;48.772;8.754;2023-04-29T13:25:39;14.00;99.90
16511;DHT22;8368;48.772;8.754;2023-04-29T13:28:05;14.00;99.90
16511;DHT22;8368;48.772;8.754;2023-04-29T13:30:31;13.90;99.90
16511;DHT22;8368;48.772;8.754;2023-04-29T13:32:57;14.00;99.90
16511;DHT22;8368;48.772;8.754;2023-04-29T13:35:23;14.00;99.90
16511;DHT22;8368;48.772;8.754;2023-04-29T13:37:48;13.70;99.90
16511;DHT22;8368;48.772;8.754;2023-04-29T13:40:14;13.50;99.90
16511;DHT22;8368;48.772;8.754;2023-04-29T13:42:39;13.50;99.90
16511;DHT22;8368;48.772;8.754;2023-04-29T13:45:05;13.40;99.90
16511;DHT22;8368;48.772;8.754;2023-04-29T13:47:31;13.40;99.90
16511;DHT22;8368;48.772;8.754;2023-04-29T13:49:56;13.40;99.90
16511;DHT22;8368;48.772;8.754;2023-04-29T13:52:22;13.30;99.90
16511;DHT22;8368;48.772;8.754;2023-04-29T13:54:47;13.30;99.90
16511;DHT22;8368;48.772;8.754;2023-04-29T13:57:13;13.20;99.90
16511;DHT22;8368;48.772;8.754;2023-04-29T13:59:38;13.20;99.90
16511;DHT22;8368;48.772;8.754;2023-04-29T14:02:04;13.00;99.90
16511;DHT22;8368;48.772;8.754;2023-04-29T14:04:30;12.80;99.90
16511;DHT22;8368;48.772;8.754;2023-04-29T14:06:55;12.90;99.90
16511;DHT22;8368;48.772;8.754;2023-04-29T14:09:22;12.90;99.90
16511;DHT22;8368;48.772;8.754;2023-04-29T14:11:48;13.00;99.90
16511;DHT22;8368;48.772;8.754;2023-04-29T14:14:15;12.90;99.90
16511;DHT22;8368;48.772;8.754;2023-04-29T14:16:41;13.00;99.90
16511;DHT22;8368;48.772;8.754;2023-04-29T14:19:07;13.00;99.90
16511;DHT22;8368;48.772;8.754;2023-04-29T14:21:33;13.00;99.90
16511;DHT22;8368;48.772;8.754;2023-04-29T14:23:59;13.00;99.90
16511;DHT22;8368;48.772;8.754;2023-04-29T14:26:26;13.10;99.90
16511;DHT22;8368;48.772;8.754;2023-04-29T14:28:53;13.40;99.90
16511;DHT22;8368;48.772;8.754;2023-04-29T14:31:33;13.40;99.90
16511;DHT22;8368;48.772;8.754;2023-04-29T14:34:06;13.40;99.90
16511;DHT22;8368;48.772;8.754;2023-04-29T14:36:32;13.60;99.90
16511;DHT22;8368;48.772;8.754;2023-04-29T14:38:58;13.60;99.90
16511;DHT22;8368;48.772;8.754;2023-04-29T14:41:24;13.50;99.90
16511;DHT22;8368;48.772;8.754;2023-04-29T14:43:50;13.40;99.90
16511;DHT22;8368;48.772;8.754;2023-04-29T14:46:15;13.30;99.90
16511;DHT22;8368;48.772;8.754;2023-04-29T14:48:41;13.40;99.90
16511;DHT22;8368;48.772;8.754;2023-04-29T14:51:07;13.50;99.90
16511;DHT22;8368;48.772;8.754;2023-04-29T14:53:32;13.50;99.90
16511;DHT22;8368;48.772;8.754;2023-04-29T14:55:58;13.60;99.90
16511;DHT22;8368;48.772;8.754;2023-04-29T14:58:24;13.60;99.90
16511;DHT22;8368;48.772;8.754;2023-04-29T15:00:50;13.60;99.90
16511;DHT22;8368;48.772;8.754;2023-04-29T15:03:16;13.50;99.90
16511;DHT22;8368;48.772;8.754;2023-04-29T15:05:42;13.50;99.90
16511;DHT22;8368;48.772;8.754;2023-04-29T15:08:08;13.40;99.90
16511;DHT22;8368;48.772;8.754;2023-04-29T15:10:33;13.30;99.90
16511;DHT22;8368;48.772;8.754;2023-04-29T15:12:59;13.20;99.90
16511;DHT22;8368;48.772;8.754;2023-04-29T15:15:25;13.10;99.90
16511;DHT22;8368;48.772;8.754;2023-04-29T15:17:51;12.90;99.90
16511;DHT22;8368;48.772;8.754;2023-04-29T15:20:16;12.70;99.90
16511;DHT22;8368;48.772;8.754;2023-04-29T15:22:42;12.50;99.90
16511;DHT22;8368;48.772;8.754;2023-04-29T15:25:08;12.50;99.90
16511;DHT22;8368;48.772;8.754;2023-04-29T15:27:34;12.40;99.90
16511;DHT22;8368;48.772;8.754;2023-04-29T15:29:59;12.40;99.90
16511;DHT22;8368;48.772;8.754;2023-04-29T15:32:25;12.30;99.90
16511;DHT22;8368;48.772;8.754;2023-04-29T15:34:56;12.30;99.90
16511;DHT22;8368;48.772;8.754;2023-04-29T15:37:22;12.40;99.90
16511;DHT22;8368;48.772;8.754;2023-04-29T15:39:47;12.30;99.90
16511;DHT22;8368;48.772;8.754;2023-04-29T15:42:13;12.30;99.90
16511;DHT22;8368;48.772;8.754;2023-04-29T15:44:38;12.30;99.90
16511;DHT22;8368;48.772;8.754;2023-04-29T15:47:04;12.20;99.90
16511;DHT22;8368;48.772;8.754;2023-04-29T15:49:29;12.20;99.90
16511;DHT22;8368;48.772;8.754;2023-04-29T15:51:55;12.10;99.90
16511;DHT22;8368;48.772;8.754;2023-04-29T15:54:21;12.00;99.90
16511;DHT22;8368;48.772;8.754;2023-04-29T15:56:47;11.90;99.90
16511;DHT22;8368;48.772;8.754;2023-04-29T15:59:13;11.80;99.90
16511;DHT22;8368;48.772;8.754;2023-04-29T16:01:40;11.60;99.90
16511;DHT22;8368;48.772;8.754;2023-04-29T16:04:06;11.60;99.90
16511;DHT22;8368;48.772;8.754;2023-04-29T16:06:31;11.50;99.90
16511;DHT22;8368;48.772;8.754;2023-04-29T16:08:57;11.50;99.90